sensor_id;sensor_type;location;lat;lon;timestamp;P1;durP1;ratioP1;P2;durP2;ratioP2
12824;SDS011;6478;50.984;11.044;2022-08-01T00:00:10;2.20;;;1.70;;
12824;SDS011;6478;50.984;11.044;2022-08-01T00:02:36;1.63;;;1.53;;
12824;SDS011;6478;50.984;11.044;2022-08-01T00:05:03;1.50;;;1.40;;
12824;SDS011;6478;50.984;11.044;2022-08-01T00:07:30;2.00;;;1.80;;
12824;SDS011;6478;50.984;11.044;2022-08-01T00:09:56;1.70;;;1.60;;
12824;SDS011;6478;50.984;11.044;2022-08-01T00:12:22;1.73;;;1.40;;
12824;SDS011;6478;50.984;11.044;2022-08-01T00:14:48;1.60;;;1.50;;
12824;SDS011;6478;50.984;11.044;2022-08-01T00:17:14;1.47;;;1.30;;
12824;SDS011;6478;50.984;11.044;2022-08-01T00:19:40;1.40;;;1.30;;
12824;SDS011;6478;50.984;11.044;2022-08-01T00:22:07;1.40;;;1.30;;
12824;SDS011;6478;50.984;11.044;2022-08-01T00:24:33;1.53;;;1.30;;
12824;SDS011;6478;50.984;11.044;2022-08-01T00:26:59;1.80;;;1.23;;
12824;SDS011;6478;50.984;11.044;2022-08-01T00:29:25;0.87;;;0.87;;
12824;SDS011;6478;50.984;11.044;2022-08-01T00:31:51;1.53;;;1.23;;
12824;SDS011;6478;50.984;11.044;2022-08-01T00:34:17;1.30;;;1.20;;
12824;SDS011;6478;50.984;11.044;2022-08-01T00:36:43;1.20;;;1.10;;
12824;SDS011;6478;50.984;11.044;2022-08-01T00:39:09;1.10;;;1.03;;
12824;SDS011;6478;50.984;11.044;2022-08-01T00:41:35;0.90;;;0.90;;
12824;SDS011;6478;50.984;11.044;2022-08-01T00:44:04;0.93;;;0.83;;
12824;SDS011;6478;50.984;11.044;2022-08-01T00:46:30;1.40;;;1.30;;
12824;SDS011;6478;50.984;11.044;2022-08-01T00:48:56;1.63;;;1.30;;
12824;SDS011;6478;50.984;11.044;2022-08-01T00:51:22;0.83;;;0.83;;
12824;SDS011;6478;50.984;11.044;2022-08-01T00:53:49;1.03;;;0.93;;
12824;SDS011;6478;50.984;11.044;2022-08-01T00:56:15;1.57;;;1.17;;
12824;SDS011;6478;50.984;11.044;2022-08-01T00:58:41;1.20;;;1.00;;
12824;SDS011;6478;50.984;11.044;2022-08-01T01:01:08;1.30;;;0.87;;
12824;SDS011;6478;50.984;11.044;2022-08-01T01:03:34;1.00;;;1.00;;
12824;SDS011;6478;50.984;11.044;2022-08-01T01:06:11;1.10;;;1.00;;
12824;SDS011;6478;50.984;11.044;2022-08-01T01:08:43;1.10;;;1.00;;
12824;SDS011;6478;50.984;11.044;2022-08-01T01:11:13;1.43;;;1.10;;
12824;SDS011;6478;50.984;11.044;2022-08-01T01:13:45;0.97;;;0.97;;
12824;SDS011;6478;50.984;11.044;2022-08-01T01:16:13;1.20;;;1.10;;
12824;SDS011;6478;50.984;11.044;2022-08-01T01:18:45;1.57;;;1.40;;
12824;SDS011;6478;50.984;11.044;2022-08-01T01:28:59;1.33;;;1.23;;
12824;SDS011;6478;50.984;11.044;2022-08-01T01:31:26;1.27;;;1.17;;
12824;SDS011;6478;50.984;11.044;2022-08-01T01:33:53;1.13;;;1.03;;
12824;SDS011;6478;50.984;11.044;2022-08-01T01:36:19;1.37;;;1.27;;
12824;SDS011;6478;50.984;11.044;2022-08-01T01:38:46;1.00;;;0.97;;
12824;SDS011;6478;50.984;11.044;2022-08-01T01:41:14;1.40;;;1.23;;
12824;SDS011;6478;50.984;11.044;2022-08-01T01:43:41;1.83;;;1.37;;
12824;SDS011;6478;50.984;11.044;2022-08-01T01:46:09;1.13;;;1.10;;
12824;SDS011;6478;50.984;11.044;2022-08-01T01:48:35;1.37;;;1.27;;
12824;SDS011;6478;50.984;11.044;2022-08-01T01:51:01;1.20;;;1.10;;
12824;SDS011;6478;50.984;11.044;2022-08-01T01:53:28;1.40;;;1.20;;
12824;SDS011;6478;50.984;11.044;2022-08-01T01:55:57;0.90;;;0.90;;
12824;SDS011;6478;50.984;11.044;2022-08-01T01:58:23;1.27;;;1.17;;
12824;SDS011;6478;50.984;11.044;2022-08-01T02:00:50;1.20;;;1.10;;
12824;SDS011;6478;50.984;11.044;2022-08-01T02:03:17;1.37;;;1.20;;
12824;SDS011;6478;50.984;11.044;2022-08-01T02:05:44;1.03;;;1.03;;
12824;SDS011;6478;50.984;11.044;2022-08-01T02:08:10;1.00;;;1.00;;
12824;SDS011;6478;50.984;11.044;2022-08-01T02:10:37;1.30;;;1.20;;
12824;SDS011;6478;50.984;11.044;2022-08-01T02:13:05;0.93;;;0.93;;
12824;SDS011;6478;50.984;11.044;2022-08-01T02:15:36;1.50;;;1.40;;
12824;SDS011;6478;50.984;11.044;2022-08-01T02:18:05;1.40;;;1.30;;
12824;SDS011;6478;50.984;11.044;2022-08-01T02:20:33;1.47;;;1.37;;
12824;SDS011;6478;50.984;11.044;2022-08-01T02:23:06;0.90;;;0.90;;
12824;SDS011;6478;50.984;11.044;2022-08-01T02:25:34;1.23;;;1.13;;
12824;SDS011;6478;50.984;11.044;2022-08-01T02:28:06;1.20;;;1.10;;
12824;SDS011;6478;50.984;11.044;2022-08-01T02:30:34;1.03;;;1.00;;
12824;SDS011;6478;50.984;11.044;2022-08-01T02:35:34;1.37;;;1.27;;
12824;SDS011;6478;50.984;11.044;2022-08-01T02:38:01;1.20;;;1.10;;
12824;SDS011;6478;50.984;11.044;2022-08-01T02:40:29;1.87;;;1.17;;
12824;SDS011;6478;50.984;11.044;2022-08-01T02:42:57;1.20;;;1.10;;
12824;SDS011;6478;50.984;11.044;2022-08-01T02:45:25;1.20;;;1.10;;
12824;SDS011;6478;50.984;11.044;2022-08-01T02:47:51;1.20;;;1.10;;
12824;SDS011;6478;50.984;11.044;2022-08-01T02:50:19;1.30;;;1.20;;
12824;SDS011;6478;50.984;11.044;2022-08-01T02:52:46;0.70;;;0.70;;
12824;SDS011;6478;50.984;11.044;2022-08-01T02:55:14;1.40;;;1.30;;
12824;SDS011;6478;50.984;11.044;2022-08-01T02:57:40;1.20;;;1.10;;
12824;SDS011;6478;50.984;11.044;2022-08-01T03:00:07;1.30;;;1.20;;
12824;SDS011;6478;50.984;11.044;2022-08-01T03:02:34;1.37;;;1.27;;
12824;SDS011;6478;50.984;11.044;2022-08-01T03:05:01;1.30;;;1.20;;
12824;SDS011;6478;50.984;11.044;2022-08-01T03:07:28;1.20;;;1.10;;
12824;SDS011;6478;50.984;11.044;2022-08-01T03:09:54;1.57;;;1.40;;
12824;SDS011;6478;50.984;11.044;2022-08-01T03:12:24;1.67;;;1.57;;
12824;SDS011;6478;50.984;11.044;2022-08-01T03:14:51;1.60;;;1.50;;
12824;SDS011;6478;50.984;11.044;2022-08-01T03:17:19;2.13;;;1.47;;
12824;SDS011;6478;50.984;11.044;2022-08-01T03:19:46;1.70;;;1.60;;
12824;SDS011;6478;50.984;11.044;2022-08-01T03:22:12;1.73;;;1.40;;
12824;SDS011;6478;50.984;11.044;2022-08-01T03:24:40;1.27;;;1.10;;
12824;SDS011;6478;50.984;11.044;2022-08-01T03:27:07;1.33;;;1.20;;
12824;SDS011;6478;50.984;11.044;2022-08-01T03:29:34;1.40;;;1.30;;
12824;SDS011;6478;50.984;11.044;2022-08-01T03:32:01;1.70;;;1.60;;
12824;SDS011;6478;50.984;11.044;2022-08-01T03:34:28;1.57;;;1.47;;
12824;SDS011;6478;50.984;11.044;2022-08-01T03:37:05;1.30;;;1.20;;
12824;SDS011;6478;50.984;11.044;2022-08-01T03:39:33;1.20;;;1.10;;
12824;SDS011;6478;50.984;11.044;2022-08-01T03:42:03;1.60;;;1.50;;
12824;SDS011;6478;50.984;11.044;2022-08-01T03:44:32;1.83;;;1.50;;
12824;SDS011;6478;50.984;11.044;2022-08-01T03:47:00;1.30;;;1.20;;
12824;SDS011;6478;50.984;11.044;2022-08-01T03:49:31;1.90;;;1.37;;
12824;SDS011;6478;50.984;11.044;2022-08-01T03:51:58;1.37;;;1.27;;
12824;SDS011;6478;50.984;11.044;2022-08-01T03:54:28;1.50;;;1.40;;
12824;SDS011;6478;50.984;11.044;2022-08-01T03:56:55;1.30;;;1.20;;
12824;SDS011;6478;50.984;11.044;2022-08-01T03:59:21;1.63;;;1.53;;
12824;SDS011;6478;50.984;11.044;2022-08-01T04:01:48;1.83;;;1.40;;
12824;SDS011;6478;50.984;11.044;2022-08-01T04:04:14;1.60;;;1.50;;
12824;SDS011;6478;50.984;11.044;2022-08-01T04:06:40;1.53;;;1.30;;
12824;SDS011;6478;50.984;11.044;2022-08-01T04:09:08;1.63;;;1.53;;
12824;SDS011;6478;50.984;11.044;2022-08-01T04:11:34;1.63;;;1.53;;
12824;SDS011;6478;50.984;11.044;2022-08-01T04:14:00;1.20;;;1.10;;
12824;SDS011;6478;50.984;11.044;2022-08-01T04:16:26;1.30;;;1.20;;
12824;SDS011;6478;50.984;11.044;2022-08-01T04:18:53;1.40;;;1.30;;
12824;SDS011;6478;50.984;11.044;2022-08-01T04:21:20;1.60;;;1.50;;
12824;SDS011;6478;50.984;11.044;2022-08-01T04:23:47;1.60;;;1.50;;
12824;SDS011;6478;50.984;11.044;2022-08-01T04:26:14;1.50;;;1.40;;
12824;SDS011;6478;50.984;11.044;2022-08-01T04:28:41;3.73;;;3.43;;
12824;SDS011;6478;50.984;11.044;2022-08-01T04:31:08;4.13;;;3.73;;
12824;SDS011;6478;50.984;11.044;2022-08-01T04:33:35;3.00;;;2.70;;
12824;SDS011;6478;50.984;11.044;2022-08-01T04:36:01;2.17;;;2.07;;
12824;SDS011;6478;50.984;11.044;2022-08-01T04:38:29;2.30;;;2.00;;
12824;SDS011;6478;50.984;11.044;2022-08-01T04:40:56;9.40;;;8.43;;
12824;SDS011;6478;50.984;11.044;2022-08-01T04:43:23;11.50;;;10.40;;
12824;SDS011;6478;50.984;11.044;2022-08-01T04:45:49;7.93;;;7.00;;
12824;SDS011;6478;50.984;11.044;2022-08-01T04:48:19;4.50;;;4.10;;
12824;SDS011;6478;50.984;11.044;2022-08-01T04:50:48;3.30;;;3.00;;
12824;SDS011;6478;50.984;11.044;2022-08-01T04:53:14;3.53;;;3.10;;
12824;SDS011;6478;50.984;11.044;2022-08-01T04:55:41;2.50;;;2.10;;
12824;SDS011;6478;50.984;11.044;2022-08-01T04:58:08;2.50;;;2.17;;
12824;SDS011;6478;50.984;11.044;2022-08-01T05:00:34;1.80;;;1.67;;
12824;SDS011;6478;50.984;11.044;2022-08-01T05:03:00;1.97;;;1.80;;
12824;SDS011;6478;50.984;11.044;2022-08-01T05:05:26;1.80;;;1.70;;
12824;SDS011;6478;50.984;11.044;2022-08-01T05:07:52;1.93;;;1.50;;
12824;SDS011;6478;50.984;11.044;2022-08-01T05:10:18;3.17;;;1.47;;
12824;SDS011;6478;50.984;11.044;2022-08-01T05:12:44;1.63;;;1.40;;
12824;SDS011;6478;50.984;11.044;2022-08-01T05:15:11;3.40;;;1.30;;
12824;SDS011;6478;50.984;11.044;2022-08-01T05:17:37;2.47;;;1.50;;
12824;SDS011;6478;50.984;11.044;2022-08-01T05:20:03;1.40;;;1.30;;
12824;SDS011;6478;50.984;11.044;2022-08-01T05:22:31;1.37;;;1.27;;
12824;SDS011;6478;50.984;11.044;2022-08-01T05:24:57;1.30;;;1.20;;
12824;SDS011;6478;50.984;11.044;2022-08-01T05:27:24;1.40;;;1.30;;
12824;SDS011;6478;50.984;11.044;2022-08-01T05:29:50;1.50;;;1.40;;
12824;SDS011;6478;50.984;11.044;2022-08-01T05:32:16;2.60;;;1.40;;
12824;SDS011;6478;50.984;11.044;2022-08-01T05:34:42;1.70;;;1.27;;
12824;SDS011;6478;50.984;11.044;2022-08-01T05:37:08;1.63;;;1.53;;
12824;SDS011;6478;50.984;11.044;2022-08-01T05:39:34;1.20;;;1.10;;
12824;SDS011;6478;50.984;11.044;2022-08-01T05:42:01;1.57;;;1.47;;
12824;SDS011;6478;50.984;11.044;2022-08-01T05:44:27;1.40;;;1.30;;
12824;SDS011;6478;50.984;11.044;2022-08-01T05:46:53;1.30;;;1.20;;
12824;SDS011;6478;50.984;11.044;2022-08-01T05:49:19;2.33;;;1.27;;
12824;SDS011;6478;50.984;11.044;2022-08-01T05:51:45;1.37;;;1.20;;
12824;SDS011;6478;50.984;11.044;2022-08-01T05:54:11;1.33;;;1.10;;
12824;SDS011;6478;50.984;11.044;2022-08-01T05:56:37;1.20;;;1.10;;
12824;SDS011;6478;50.984;11.044;2022-08-01T05:59:03;1.20;;;1.10;;
12824;SDS011;6478;50.984;11.044;2022-08-01T06:01:29;1.10;;;1.00;;
12824;SDS011;6478;50.984;11.044;2022-08-01T06:03:55;1.13;;;1.00;;
12824;SDS011;6478;50.984;11.044;2022-08-01T06:06:21;1.30;;;1.20;;
12824;SDS011;6478;50.984;11.044;2022-08-01T06:08:47;0.97;;;0.93;;
12824;SDS011;6478;50.984;11.044;2022-08-01T06:11:13;1.10;;;1.00;;
12824;SDS011;6478;50.984;11.044;2022-08-01T06:13:39;1.40;;;1.30;;
12824;SDS011;6478;50.984;11.044;2022-08-01T06:16:05;1.20;;;1.10;;
12824;SDS011;6478;50.984;11.044;2022-08-01T06:18:31;2.07;;;1.47;;
12824;SDS011;6478;50.984;11.044;2022-08-01T06:20:57;1.43;;;1.20;;
12824;SDS011;6478;50.984;11.044;2022-08-01T06:23:23;1.60;;;1.37;;
12824;SDS011;6478;50.984;11.044;2022-08-01T06:25:52;1.70;;;1.10;;
12824;SDS011;6478;50.984;11.044;2022-08-01T06:28:19;1.80;;;1.33;;
12824;SDS011;6478;50.984;11.044;2022-08-01T06:30:45;1.37;;;1.27;;
12824;SDS011;6478;50.984;11.044;2022-08-01T06:33:11;1.20;;;1.10;;
12824;SDS011;6478;50.984;11.044;2022-08-01T06:35:37;1.93;;;1.30;;
12824;SDS011;6478;50.984;11.044;2022-08-01T06:38:03;1.40;;;1.30;;
12824;SDS011;6478;50.984;11.044;2022-08-01T06:40:29;2.40;;;1.40;;
12824;SDS011;6478;50.984;11.044;2022-08-01T06:42:55;1.10;;;1.00;;
12824;SDS011;6478;50.984;11.044;2022-08-01T06:45:20;0.87;;;0.87;;
12824;SDS011;6478;50.984;11.044;2022-08-01T06:47:51;0.90;;;0.90;;
12824;SDS011;6478;50.984;11.044;2022-08-01T06:50:17;0.90;;;0.90;;
12824;SDS011;6478;50.984;11.044;2022-08-01T06:52:43;0.73;;;0.67;;
12824;SDS011;6478;50.984;11.044;2022-08-01T06:55:10;0.80;;;0.80;;
12824;SDS011;6478;50.984;11.044;2022-08-01T06:57:36;2.50;;;0.90;;
12824;SDS011;6478;50.984;11.044;2022-08-01T07:00:03;0.80;;;0.80;;
12824;SDS011;6478;50.984;11.044;2022-08-01T07:02:32;0.70;;;0.70;;
12824;SDS011;6478;50.984;11.044;2022-08-01T07:04:58;0.47;;;0.47;;
12824;SDS011;6478;50.984;11.044;2022-08-01T07:07:25;0.57;;;0.57;;
12824;SDS011;6478;50.984;11.044;2022-08-01T07:09:51;0.80;;;0.80;;
12824;SDS011;6478;50.984;11.044;2022-08-01T07:12:17;0.60;;;0.60;;
12824;SDS011;6478;50.984;11.044;2022-08-01T07:14:43;0.67;;;0.60;;
12824;SDS011;6478;50.984;11.044;2022-08-01T07:17:09;0.70;;;0.60;;
12824;SDS011;6478;50.984;11.044;2022-08-01T07:19:35;0.50;;;0.50;;
12824;SDS011;6478;50.984;11.044;2022-08-01T07:22:01;0.57;;;0.57;;
12824;SDS011;6478;50.984;11.044;2022-08-01T07:24:28;0.60;;;0.60;;
12824;SDS011;6478;50.984;11.044;2022-08-01T07:26:54;0.93;;;0.80;;
12824;SDS011;6478;50.984;11.044;2022-08-01T07:29:22;0.60;;;0.60;;
12824;SDS011;6478;50.984;11.044;2022-08-01T07:31:49;0.73;;;0.70;;
12824;SDS011;6478;50.984;11.044;2022-08-01T07:34:15;0.80;;;0.80;;
12824;SDS011;6478;50.984;11.044;2022-08-01T07:36:41;3.23;;;0.90;;
12824;SDS011;6478;50.984;11.044;2022-08-01T07:39:07;0.80;;;0.80;;
12824;SDS011;6478;50.984;11.044;2022-08-01T07:41:32;0.70;;;0.70;;
12824;SDS011;6478;50.984;11.044;2022-08-01T07:43:58;0.70;;;0.70;;
12824;SDS011;6478;50.984;11.044;2022-08-01T07:46:24;0.70;;;0.70;;
12824;SDS011;6478;50.984;11.044;2022-08-01T07:48:50;0.73;;;0.73;;
12824;SDS011;6478;50.984;11.044;2022-08-01T07:51:17;0.90;;;0.90;;
12824;SDS011;6478;50.984;11.044;2022-08-01T07:53:43;0.80;;;0.80;;
12824;SDS011;6478;50.984;11.044;2022-08-01T07:56:09;1.53;;;0.80;;
12824;SDS011;6478;50.984;11.044;2022-08-01T07:58:35;0.73;;;0.67;;
12824;SDS011;6478;50.984;11.044;2022-08-01T08:01:01;0.83;;;0.83;;
12824;SDS011;6478;50.984;11.044;2022-08-01T08:03:27;0.63;;;0.63;;
12824;SDS011;6478;50.984;11.044;2022-08-01T08:05:53;1.33;;;0.90;;
12824;SDS011;6478;50.984;11.044;2022-08-01T08:08:19;0.87;;;0.87;;
12824;SDS011;6478;50.984;11.044;2022-08-01T08:10:45;0.63;;;0.60;;
12824;SDS011;6478;50.984;11.044;2022-08-01T08:13:11;0.70;;;0.70;;
12824;SDS011;6478;50.984;11.044;2022-08-01T08:15:37;0.60;;;0.60;;
12824;SDS011;6478;50.984;11.044;2022-08-01T08:18:03;0.70;;;0.70;;
12824;SDS011;6478;50.984;11.044;2022-08-01T08:20:29;1.20;;;0.80;;
12824;SDS011;6478;50.984;11.044;2022-08-01T08:22:55;0.70;;;0.70;;
12824;SDS011;6478;50.984;11.044;2022-08-01T08:25:23;0.70;;;0.53;;
12824;SDS011;6478;50.984;11.044;2022-08-01T08:27:49;0.60;;;0.60;;
12824;SDS011;6478;50.984;11.044;2022-08-01T08:30:15;0.67;;;0.67;;
12824;SDS011;6478;50.984;11.044;2022-08-01T08:32:41;0.83;;;0.80;;
12824;SDS011;6478;50.984;11.044;2022-08-01T08:35:07;0.77;;;0.50;;
12824;SDS011;6478;50.984;11.044;2022-08-01T08:37:34;0.50;;;0.50;;
12824;SDS011;6478;50.984;11.044;2022-08-01T08:40:00;0.47;;;0.43;;
12824;SDS011;6478;50.984;11.044;2022-08-01T08:42:26;2.00;;;0.77;;
12824;SDS011;6478;50.984;11.044;2022-08-01T08:44:52;0.57;;;0.43;;
12824;SDS011;6478;50.984;11.044;2022-08-01T08:47:22;0.57;;;0.30;;
12824;SDS011;6478;50.984;11.044;2022-08-01T08:49:49;0.50;;;0.50;;
12824;SDS011;6478;50.984;11.044;2022-08-01T08:52:16;0.50;;;0.50;;
12824;SDS011;6478;50.984;11.044;2022-08-01T08:54:43;0.63;;;0.40;;
12824;SDS011;6478;50.984;11.044;2022-08-01T08:57:10;0.80;;;0.60;;
12824;SDS011;6478;50.984;11.044;2022-08-01T08:59:38;0.30;;;0.30;;
12824;SDS011;6478;50.984;11.044;2022-08-01T09:02:05;0.40;;;0.40;;
12824;SDS011;6478;50.984;11.044;2022-08-01T09:04:31;0.83;;;0.50;;
12824;SDS011;6478;50.984;11.044;2022-08-01T09:06:57;1.77;;;0.40;;
12824;SDS011;6478;50.984;11.044;2022-08-01T09:09:23;1.03;;;0.50;;
12824;SDS011;6478;50.984;11.044;2022-08-01T09:11:49;0.33;;;0.33;;
12824;SDS011;6478;50.984;11.044;2022-08-01T09:14:16;0.53;;;0.53;;
12824;SDS011;6478;50.984;11.044;2022-08-01T09:17:03;0.50;;;0.50;;
12824;SDS011;6478;50.984;11.044;2022-08-01T09:22:02;0.73;;;0.50;;
12824;SDS011;6478;50.984;11.044;2022-08-01T09:24:29;0.40;;;0.40;;
12824;SDS011;6478;50.984;11.044;2022-08-01T09:26:56;0.53;;;0.50;;
12824;SDS011;6478;50.984;11.044;2022-08-01T09:29:25;0.40;;;0.40;;
12824;SDS011;6478;50.984;11.044;2022-08-01T09:31:52;0.33;;;0.33;;
12824;SDS011;6478;50.984;11.044;2022-08-01T09:34:28;0.40;;;0.30;;
12824;SDS011;6478;50.984;11.044;2022-08-01T09:36:56;0.50;;;0.40;;
12824;SDS011;6478;50.984;11.044;2022-08-01T09:39:24;0.30;;;0.30;;
12824;SDS011;6478;50.984;11.044;2022-08-01T09:41:50;0.40;;;0.40;;
12824;SDS011;6478;50.984;11.044;2022-08-01T09:44:17;1.00;;;0.43;;
12824;SDS011;6478;50.984;11.044;2022-08-01T09:46:50;2.30;;;0.40;;
12824;SDS011;6478;50.984;11.044;2022-08-01T09:49:26;0.30;;;0.30;;
12824;SDS011;6478;50.984;11.044;2022-08-01T09:51:52;1.07;;;0.40;;
12824;SDS011;6478;50.984;11.044;2022-08-01T09:54:27;0.30;;;0.30;;
12824;SDS011;6478;50.984;11.044;2022-08-01T09:56:53;0.40;;;0.40;;
12824;SDS011;6478;50.984;11.044;2022-08-01T09:59:19;0.40;;;0.30;;
12824;SDS011;6478;50.984;11.044;2022-08-01T10:01:46;0.37;;;0.30;;
12824;SDS011;6478;50.984;11.044;2022-08-01T10:04:13;0.30;;;0.30;;
12824;SDS011;6478;50.984;11.044;2022-08-01T10:06:40;0.30;;;0.30;;
12824;SDS011;6478;50.984;11.044;2022-08-01T10:09:13;0.30;;;0.30;;
12824;SDS011;6478;50.984;11.044;2022-08-01T10:11:40;0.67;;;0.50;;
12824;SDS011;6478;50.984;11.044;2022-08-01T10:14:06;0.73;;;0.50;;
12824;SDS011;6478;50.984;11.044;2022-08-01T10:16:33;0.30;;;0.30;;
12824;SDS011;6478;50.984;11.044;2022-08-01T10:19:00;0.40;;;0.40;;
12824;SDS011;6478;50.984;11.044;2022-08-01T10:21:26;0.70;;;0.50;;
12824;SDS011;6478;50.984;11.044;2022-08-01T10:23:54;0.53;;;0.43;;
12824;SDS011;6478;50.984;11.044;2022-08-01T10:26:24;1.40;;;0.40;;
12824;SDS011;6478;50.984;11.044;2022-08-01T10:28:51;0.47;;;0.40;;
12824;SDS011;6478;50.984;11.044;2022-08-01T10:31:17;0.53;;;0.53;;
12824;SDS011;6478;50.984;11.044;2022-08-01T10:33:44;0.30;;;0.30;;
12824;SDS011;6478;50.984;11.044;2022-08-01T10:36:10;0.70;;;0.30;;
12824;SDS011;6478;50.984;11.044;2022-08-01T10:38:36;0.50;;;0.50;;
12824;SDS011;6478;50.984;11.044;2022-08-01T10:41:03;0.43;;;0.30;;
12824;SDS011;6478;50.984;11.044;2022-08-01T10:43:29;0.40;;;0.40;;
12824;SDS011;6478;50.984;11.044;2022-08-01T10:45:56;0.40;;;0.40;;
12824;SDS011;6478;50.984;11.044;2022-08-01T10:48:24;0.40;;;0.40;;
12824;SDS011;6478;50.984;11.044;2022-08-01T10:50:52;0.50;;;0.30;;
12824;SDS011;6478;50.984;11.044;2022-08-01T10:53:20;0.63;;;0.47;;
12824;SDS011;6478;50.984;11.044;2022-08-01T10:55:57;0.40;;;0.37;;
12824;SDS011;6478;50.984;11.044;2022-08-01T10:58:26;0.30;;;0.30;;
12824;SDS011;6478;50.984;11.044;2022-08-01T11:03:37;0.33;;;0.33;;
12824;SDS011;6478;50.984;11.044;2022-08-01T11:06:03;0.30;;;0.30;;
12824;SDS011;6478;50.984;11.044;2022-08-01T11:08:30;0.63;;;0.30;;
12824;SDS011;6478;50.984;11.044;2022-08-01T11:11:00;0.30;;;0.30;;
12824;SDS011;6478;50.984;11.044;2022-08-01T11:18:56;0.77;;;0.37;;
12824;SDS011;6478;50.984;11.044;2022-08-01T11:21:22;0.30;;;0.30;;
12824;SDS011;6478;50.984;11.044;2022-08-01T11:23:51;0.50;;;0.40;;
12824;SDS011;6478;50.984;11.044;2022-08-01T11:26:18;1.60;;;0.43;;
12824;SDS011;6478;50.984;11.044;2022-08-01T11:28:45;0.30;;;0.30;;
12824;SDS011;6478;50.984;11.044;2022-08-01T11:43:35;0.52;;;0.32;;
12824;SDS011;6478;50.984;11.044;2022-08-01T11:46:07;0.30;;;0.30;;
12824;SDS011;6478;50.984;11.044;2022-08-01T11:48:32;0.35;;;0.30;;
12824;SDS011;6478;50.984;11.044;2022-08-01T11:50:58;0.43;;;0.20;;
12824;SDS011;6478;50.984;11.044;2022-08-01T11:53:24;0.30;;;0.30;;
12824;SDS011;6478;50.984;11.044;2022-08-01T11:55:53;0.20;;;0.20;;
12824;SDS011;6478;50.984;11.044;2022-08-01T11:58:20;0.70;;;0.20;;
12824;SDS011;6478;50.984;11.044;2022-08-01T12:00:50;0.20;;;0.20;;
12824;SDS011;6478;50.984;11.044;2022-08-01T12:03:17;0.28;;;0.20;;
12824;SDS011;6478;50.984;11.044;2022-08-01T12:05:48;0.20;;;0.20;;
12824;SDS011;6478;50.984;11.044;2022-08-01T12:08:23;0.68;;;0.20;;
12824;SDS011;6478;50.984;11.044;2022-08-01T12:10:49;0.32;;;0.30;;
12824;SDS011;6478;50.984;11.044;2022-08-01T12:13:15;0.80;;;0.30;;
12824;SDS011;6478;50.984;11.044;2022-08-01T12:15:42;0.60;;;0.40;;
12824;SDS011;6478;50.984;11.044;2022-08-01T12:18:09;0.30;;;0.30;;
12824;SDS011;6478;50.984;11.044;2022-08-01T12:20:36;0.30;;;0.30;;
12824;SDS011;6478;50.984;11.044;2022-08-01T12:23:03;0.60;;;0.40;;
12824;SDS011;6478;50.984;11.044;2022-08-01T12:25:31;0.75;;;0.40;;
12824;SDS011;6478;50.984;11.044;2022-08-01T12:28:07;0.30;;;0.30;;
12824;SDS011;6478;50.984;11.044;2022-08-01T12:30:34;1.42;;;0.40;;
12824;SDS011;6478;50.984;11.044;2022-08-01T12:33:00;0.30;;;0.30;;
12824;SDS011;6478;50.984;11.044;2022-08-01T12:35:27;0.25;;;0.22;;
12824;SDS011;6478;50.984;11.044;2022-08-01T12:37:54;0.30;;;0.30;;
12824;SDS011;6478;50.984;11.044;2022-08-01T12:40:21;0.55;;;0.35;;
12824;SDS011;6478;50.984;11.044;2022-08-01T12:42:49;0.50;;;0.35;;
12824;SDS011;6478;50.984;11.044;2022-08-01T12:45:17;0.30;;;0.30;;
12824;SDS011;6478;50.984;11.044;2022-08-01T12:47:44;0.45;;;0.35;;
12824;SDS011;6478;50.984;11.044;2022-08-01T12:50:12;0.77;;;0.65;;
12824;SDS011;6478;50.984;11.044;2022-08-01T12:52:39;0.38;;;0.38;;
12824;SDS011;6478;50.984;11.044;2022-08-01T12:55:06;0.30;;;0.30;;
12824;SDS011;6478;50.984;11.044;2022-08-01T12:57:33;0.30;;;0.30;;
12824;SDS011;6478;50.984;11.044;2022-08-01T13:00:06;0.30;;;0.30;;
12824;SDS011;6478;50.984;11.044;2022-08-01T13:02:33;1.33;;;0.40;;
12824;SDS011;6478;50.984;11.044;2022-08-01T13:05:00;0.20;;;0.20;;
12824;SDS011;6478;50.984;11.044;2022-08-01T13:07:36;1.13;;;0.38;;
12824;SDS011;6478;50.984;11.044;2022-08-01T13:10:03;0.30;;;0.22;;
12824;SDS011;6478;50.984;11.044;2022-08-01T13:12:29;0.65;;;0.40;;
12824;SDS011;6478;50.984;11.044;2022-08-01T13:14:55;0.30;;;0.30;;
12824;SDS011;6478;50.984;11.044;2022-08-01T13:17:31;0.55;;;0.30;;
12824;SDS011;6478;50.984;11.044;2022-08-01T13:19:57;0.40;;;0.38;;
12824;SDS011;6478;50.984;11.044;2022-08-01T13:22:33;0.32;;;0.32;;
12824;SDS011;6478;50.984;11.044;2022-08-01T13:25:09;0.30;;;0.30;;
12824;SDS011;6478;50.984;11.044;2022-08-01T13:27:35;0.25;;;0.25;;
12824;SDS011;6478;50.984;11.044;2022-08-01T13:30:15;0.80;;;0.45;;
12824;SDS011;6478;50.984;11.044;2022-08-01T13:32:41;0.38;;;0.25;;
12824;SDS011;6478;50.984;11.044;2022-08-01T13:35:09;0.50;;;0.30;;
12824;SDS011;6478;50.984;11.044;2022-08-01T13:37:37;0.85;;;0.30;;
12824;SDS011;6478;50.984;11.044;2022-08-01T13:40:03;0.30;;;0.30;;
12824;SDS011;6478;50.984;11.044;2022-08-01T13:42:29;0.28;;;0.28;;
12824;SDS011;6478;50.984;11.044;2022-08-01T13:44:55;0.50;;;0.40;;
12824;SDS011;6478;50.984;11.044;2022-08-01T13:47:21;0.30;;;0.30;;
12824;SDS011;6478;50.984;11.044;2022-08-01T13:49:47;0.77;;;0.50;;
12824;SDS011;6478;50.984;11.044;2022-08-01T13:52:13;0.30;;;0.30;;
12824;SDS011;6478;50.984;11.044;2022-08-01T13:54:39;0.30;;;0.30;;
12824;SDS011;6478;50.984;11.044;2022-08-01T13:57:05;0.30;;;0.30;;
12824;SDS011;6478;50.984;11.044;2022-08-01T13:59:31;0.30;;;0.30;;
12824;SDS011;6478;50.984;11.044;2022-08-01T14:01:57;0.40;;;0.40;;
12824;SDS011;6478;50.984;11.044;2022-08-01T14:04:23;0.40;;;0.40;;
12824;SDS011;6478;50.984;11.044;2022-08-01T14:06:49;0.35;;;0.30;;
12824;SDS011;6478;50.984;11.044;2022-08-01T14:09:15;1.60;;;0.50;;
12824;SDS011;6478;50.984;11.044;2022-08-01T14:11:47;0.30;;;0.30;;
12824;SDS011;6478;50.984;11.044;2022-08-01T14:14:13;0.50;;;0.40;;
12824;SDS011;6478;50.984;11.044;2022-08-01T14:16:39;0.30;;;0.30;;
12824;SDS011;6478;50.984;11.044;2022-08-01T14:19:05;0.60;;;0.40;;
12824;SDS011;6478;50.984;11.044;2022-08-01T14:21:31;0.40;;;0.40;;
12824;SDS011;6478;50.984;11.044;2022-08-01T14:24:00;0.50;;;0.50;;
12824;SDS011;6478;50.984;11.044;2022-08-01T14:26:26;0.40;;;0.32;;
12824;SDS011;6478;50.984;11.044;2022-08-01T14:28:52;0.40;;;0.32;;
12824;SDS011;6478;50.984;11.044;2022-08-01T14:31:18;0.50;;;0.50;;
12824;SDS011;6478;50.984;11.044;2022-08-01T14:33:44;0.40;;;0.40;;
12824;SDS011;6478;50.984;11.044;2022-08-01T14:36:10;0.52;;;0.45;;
12824;SDS011;6478;50.984;11.044;2022-08-01T14:38:36;0.68;;;0.40;;
12824;SDS011;6478;50.984;11.044;2022-08-01T14:41:02;0.47;;;0.47;;
12824;SDS011;6478;50.984;11.044;2022-08-01T14:43:28;0.82;;;0.50;;
12824;SDS011;6478;50.984;11.044;2022-08-01T14:45:56;0.47;;;0.40;;
12824;SDS011;6478;50.984;11.044;2022-08-01T14:48:22;0.40;;;0.40;;
12824;SDS011;6478;50.984;11.044;2022-08-01T14:50:48;0.40;;;0.40;;
12824;SDS011;6478;50.984;11.044;2022-08-01T14:53:15;0.40;;;0.40;;
12824;SDS011;6478;50.984;11.044;2022-08-01T14:55:41;0.40;;;0.32;;
12824;SDS011;6478;50.984;11.044;2022-08-01T14:58:07;0.35;;;0.35;;
12824;SDS011;6478;50.984;11.044;2022-08-01T15:00:33;1.15;;;0.50;;
12824;SDS011;6478;50.984;11.044;2022-08-01T15:02:59;0.40;;;0.40;;
12824;SDS011;6478;50.984;11.044;2022-08-01T15:05:25;0.60;;;0.50;;
12824;SDS011;6478;50.984;11.044;2022-08-01T15:07:51;0.52;;;0.40;;
12824;SDS011;6478;50.984;11.044;2022-08-01T15:10:17;0.50;;;0.50;;
12824;SDS011;6478;50.984;11.044;2022-08-01T15:12:43;0.50;;;0.50;;
12824;SDS011;6478;50.984;11.044;2022-08-01T15:15:09;0.68;;;0.60;;
12824;SDS011;6478;50.984;11.044;2022-08-01T15:17:35;0.50;;;0.50;;
12824;SDS011;6478;50.984;11.044;2022-08-01T15:20:03;0.40;;;0.40;;